Time;durP1;ratioP1;P1;durP2;ratioP2;P2;SDS_P1;SDS_P2;PMS_P1;PMS_P2;Temp;Humidity;BMP_temperature;BMP_pressure;BME280_temperature;BME280_humidity;BME280_pressure;Samples;Min_cycle;Max_cycle;Signal;HPM_P1;HPM_P2
2021/03/11 00:01:17;;;;;;;23.00;14.10;;;4.20;99.90;;;;;;4980293;28;20467;-50
2021/03/11 00:03:46;;;;;;;23.63;14.07;;;4.20;99.90;;;;;;4980726;28;20796;-47
2021/03/11 00:06:16;;;;;;;26.27;14.70;;;4.20;99.90;;;;;;4980919;28;20466;-47
2021/03/11 00:08:44;;;;;;;26.60;14.80;;;4.20;99.90;;;;;;4981282;28;20799;-46
2021/03/11 00:11:13;;;;;;;26.97;15.13;;;4.20;99.90;;;;;;4980680;28;20892;-49
2021/03/11 00:13:41;;;;;;;23.70;14.73;;;4.20;99.90;;;;;;4980807;28;20779;-47
2021/03/11 00:16:11;;;;;;;27.33;16.00;;;4.10;99.90;;;;;;4963735;28;20465;-46
2021/03/11 00:18:40;;;;;;;25.10;16.37;;;4.10;99.90;;;;;;4980719;28;20506;-48
2021/03/11 00:21:08;;;;;;;32.60;17.13;;;4.10;99.90;;;;;;4980527;28;20820;-50
2021/03/11 00:23:38;;;;;;;31.53;16.07;;;4.10;99.90;;;;;;4981071;28;20451;-47
2021/03/11 00:26:07;;;;;;;26.57;14.83;;;4.00;99.90;;;;;;4980949;28;20797;-51
2021/03/11 00:28:35;;;;;;;27.27;16.23;;;4.10;99.90;;;;;;4981380;28;20776;-47
2021/03/11 00:31:04;;;;;;;29.17;14.67;;;4.00;99.90;;;;;;4980919;28;20517;-48
2021/03/11 00:33:32;;;;;;;29.53;14.40;;;4.10;99.90;;;;;;4980623;28;20777;-46
2021/03/11 00:36:01;;;;;;;24.70;14.43;;;4.10;99.90;;;;;;4980998;28;20843;-49
2021/03/11 00:38:32;;;;;;;26.20;15.27;;;4.10;99.90;;;;;;4980100;28;20877;-48
2021/03/11 00:41:01;;;;;;;32.77;19.70;;;4.10;99.90;;;;;;4980020;28;20790;-50
2021/03/11 00:43:30;;;;;;;32.33;17.20;;;4.10;99.90;;;;;;4979966;28;20806;-50
2021/03/11 00:45:58;;;;;;;30.70;18.40;;;4.10;99.90;;;;;;4980246;28;20820;-50
2021/03/11 00:48:27;;;;;;;31.50;17.33;;;4.10;99.90;;;;;;4980361;28;20869;-46
2021/03/11 00:50:57;;;;;;;31.53;18.77;;;4.10;99.90;;;;;;4980117;28;20785;-50
2021/03/11 00:53:25;;;;;;;33.27;17.70;;;4.10;99.90;;;;;;4980028;28;20796;-49
2021/03/11 00:55:54;;;;;;;33.63;17.57;;;4.10;99.90;;;;;;4979420;28;20912;-50
2021/03/11 00:58:23;;;;;;;31.67;17.83;;;4.10;99.90;;;;;;4979938;28;20478;-46
2021/03/11 01:00:51;;;;;;;34.83;18.10;;;4.20;99.90;;;;;;4980140;28;20793;-46
2021/03/11 01:03:20;;;;;;;30.13;16.53;;;4.10;99.90;;;;;;4980642;28;20755;-45
2021/03/11 01:05:48;;;;;;;35.90;17.60;;;4.10;99.90;;;;;;4980294;28;20789;-46
2021/03/11 01:08:17;;;;;;;34.83;18.57;;;4.10;99.90;;;;;;4980373;28;20773;-47
2021/03/11 01:10:46;;;;;;;31.50;17.23;;;4.10;99.90;;;;;;4979603;28;20828;-47
2021/03/11 01:13:15;;;;;;;33.40;19.30;;;4.00;99.90;;;;;;4980493;28;20459;-47
2021/03/11 01:15:45;;;;;;;33.77;17.37;;;4.10;99.90;;;;;;4979925;28;20780;-48
2021/03/11 01:18:15;;;;;;;35.97;18.50;;;4.10;99.90;;;;;;4979425;28;20486;-50
2021/03/11 01:20:43;;;;;;;41.00;18.10;;;4.20;99.90;;;;;;4979754;28;20451;-48
2021/03/11 01:23:12;;;;;;;34.77;17.30;;;4.20;99.90;;;;;;4979810;28;20935;-48
2021/03/11 01:25:40;;;;;;;31.83;17.90;;;4.20;99.90;;;;;;4980278;28;20990;-50
2021/03/11 01:28:12;;;;;;;35.93;17.90;;;4.10;99.90;;;;;;4979236;28;20454;-50
2021/03/11 01:30:40;;;;;;;32.57;18.27;;;4.10;99.90;;;;;;4979223;28;20847;-51
2021/03/11 01:33:10;;;;;;;34.10;19.07;;;4.20;99.90;;;;;;4979322;28;20796;-47
2021/03/11 01:35:39;;;;;;;33.03;18.83;;;4.20;99.90;;;;;;4979402;28;20796;-46
2021/03/11 01:38:07;;;;;;;31.03;18.33;;;4.20;99.90;;;;;;4978496;28;20783;-50
2021/03/11 01:40:36;;;;;;;31.83;17.60;;;4.20;99.90;;;;;;4978958;28;20787;-53
2021/03/11 01:43:05;;;;;;;42.00;21.00;;;4.30;99.90;;;;;;4979000;28;20792;-51
2021/03/11 01:45:33;;;;;;;30.87;17.70;;;4.20;99.90;;;;;;4979157;28;20778;-46
2021/03/11 01:48:01;;;;;;;36.67;21.40;;;4.30;99.90;;;;;;4978577;28;20839;-51
2021/03/11 01:50:31;;;;;;;38.67;20.03;;;4.30;99.90;;;;;;4978753;28;20765;-53
2021/03/11 01:53:00;;;;;;;37.00;19.67;;;4.30;99.90;;;;;;4977943;28;20469;-48
2021/03/11 01:55:30;;;;;;;40.50;20.10;;;4.40;99.90;;;;;;4978976;28;20758;-50
2021/03/11 01:57:58;;;;;;;38.00;19.33;;;4.40;99.90;;;;;;4978482;28;20467;-51
2021/03/11 02:00:27;;;;;;;37.70;18.73;;;4.40;99.90;;;;;;4978925;28;20469;-49
2021/03/11 02:02:56;;;;;;;43.73;19.57;;;4.40;99.90;;;;;;4979257;28;20764;-48
2021/03/11 02:05:25;;;;;;;34.33;19.10;;;4.40;99.90;;;;;;4978546;28;20790;-46
2021/03/11 02:07:54;;;;;;;39.77;20.50;;;4.50;99.90;;;;;;4980705;28;20799;-48
2021/03/11 02:10:24;;;;;;;41.00;20.83;;;4.50;99.90;;;;;;4982311;28;20784;-50
2021/03/11 02:13:18;;;;;;;42.00;22.27;;;4.50;99.90;;;;;;4982352;28;20803;-48
2021/03/11 02:15:54;;;;;;;32.90;18.83;;;4.50;99.90;;;;;;4983298;28;20807;-49
2021/03/11 02:18:27;;;;;;;45.10;21.97;;;4.40;99.90;;;;;;4982777;28;20868;-48
2021/03/11 02:21:02;;;;;;;46.60;21.87;;;4.40;99.90;;;;;;4981886;28;20852;-49
2021/03/11 02:24:06;;;;;;;39.63;21.33;;;4.40;99.90;;;;;;4982575;28;20815;-47
2021/03/11 02:27:04;;;;;;;42.93;19.77;;;4.40;99.90;;;;;;4982748;28;20753;-49
2021/03/11 02:29:36;;;;;;;34.27;18.33;;;4.40;99.90;;;;;;4966940;28;20925;-49
2021/03/11 02:32:08;;;;;;;40.40;20.07;;;4.40;99.90;;;;;;4963267;29;20479;-48
2021/03/11 02:34:38;;;;;;;34.83;19.33;;;4.40;99.90;;;;;;4963188;29;20833;-47
2021/03/11 02:37:13;;;;;;;42.53;21.70;;;4.50;99.90;;;;;;4962435;29;20851;-48
2021/03/11 02:39:44;;;;;;;44.20;19.40;;;4.50;99.90;;;;;;4962236;29;20871;-47
2021/03/11 02:42:13;;;;;;;45.00;21.27;;;4.40;99.90;;;;;;4962578;29;20812;-50
2021/03/11 02:44:43;;;;;;;38.73;20.53;;;4.50;99.90;;;;;;4962832;29;20820;-51
2021/03/11 02:47:12;;;;;;;39.77;21.13;;;4.50;99.90;;;;;;4962922;29;20789;-46
2021/03/11 02:49:41;;;;;;;43.20;20.53;;;4.50;99.90;;;;;;4963489;28;20778;-47
2021/03/11 02:52:11;;;;;;;36.77;18.80;;;4.60;99.90;;;;;;4962225;28;20465;-48
2021/03/11 02:54:39;;;;;;;47.20;21.30;;;4.60;99.90;;;;;;4962214;29;20462;-49
2021/03/11 02:57:10;;;;;;;41.43;20.27;;;4.70;99.90;;;;;;4959705;28;20793;-48
2021/03/11 02:59:39;;;;;;;40.63;20.40;;;4.70;99.90;;;;;;4970815;28;20480;-45
2021/03/11 03:02:08;;;;;;;41.73;20.50;;;4.70;99.90;;;;;;4968469;29;20460;-46
2021/03/11 03:04:38;;;;;;;41.33;19.37;;;4.70;99.90;;;;;;4968671;29;20558;-49
2021/03/11 03:07:08;;;;;;;34.00;19.93;;;4.70;99.90;;;;;;4962563;29;20481;-45
2021/03/11 03:09:35;;;;;;;36.93;20.43;;;4.70;99.90;;;;;;4945993;28;20503;-47
2021/03/11 03:12:04;;;;;;;45.37;21.30;;;4.70;99.90;;;;;;4960162;28;20880;-47
2021/03/11 03:14:32;;;;;;;43.37;22.93;;;4.70;99.90;;;;;;4959040;29;20829;-48
2021/03/11 03:17:01;;;;;;;39.77;20.37;;;4.70;99.90;;;;;;4947542;28;20962;-49
2021/03/11 03:29:52;;;;;;;39.43;21.43;;;4.70;99.90;;;;;;5409097;23;20881;-47
2021/03/11 03:32:20;;;;;;;43.90;21.63;;;4.70;99.90;;;;;;5004625;28;20477;-50
2021/03/11 03:34:48;;;;;;;42.07;20.57;;;4.70;99.90;;;;;;5005768;28;20541;-49
2021/03/11 03:37:17;;;;;;;41.20;22.27;;;4.70;99.90;;;;;;4972138;28;20824;-47
2021/03/11 03:39:45;;;;;;;37.73;20.07;;;4.80;99.90;;;;;;4966162;29;20985;-47
2021/03/11 03:42:14;;;;;;;43.03;19.90;;;4.80;99.90;;;;;;4967975;29;20796;-47
2021/03/11 03:44:44;;;;;;;43.47;21.40;;;4.70;99.90;;;;;;4967636;29;20812;-48
2021/03/11 03:47:16;;;;;;;35.37;20.33;;;4.70;99.90;;;;;;4968007;29;21046;-51
2021/03/11 03:49:45;;;;;;;46.53;21.73;;;4.70;99.90;;;;;;4967514;29;20791;-51
2021/03/11 03:52:14;;;;;;;46.40;25.27;;;4.70;99.90;;;;;;4966722;29;20794;-48
2021/03/11 03:54:45;;;;;;;36.80;21.37;;;4.70;99.90;;;;;;4957999;29;20832;-47
2021/03/11 03:57:19;;;;;;;37.50;21.10;;;4.70;99.90;;;;;;4961784;29;20848;-48
2021/03/11 03:59:51;;;;;;;42.00;20.10;;;4.80;99.90;;;;;;4957514;29;20831;-48
2021/03/11 04:02:22;;;;;;;39.40;21.87;;;4.70;99.90;;;;;;4958657;29;20840;-46
2021/03/11 04:04:54;;;;;;;42.60;22.20;;;4.70;99.90;;;;;;4959799;29;20927;-46
2021/03/11 04:07:29;;;;;;;40.27;21.07;;;4.70;99.90;;;;;;4957195;29;20883;-47
2021/03/11 04:12:32;;;;;;;45.07;22.77;;;4.70;99.90;;;;;;5900032;23;20411;-52
2021/03/11 04:15:00;;;;;;;38.23;20.63;;;4.70;99.90;;;;;;4997274;28;20458;-50
2021/03/11 04:17:31;;;;;;;41.57;22.50;;;4.70;99.90;;;;;;4996828;28;20514;-53
2021/03/11 04:20:03;;;;;;;40.40;19.73;;;4.60;99.90;;;;;;4996655;28;20470;-57
2021/03/11 04:22:31;;;;;;;36.67;21.30;;;4.60;99.90;;;;;;4996500;28;20455;-56
2021/03/11 04:25:01;;;;;;;43.33;22.80;;;4.60;99.90;;;;;;4996274;28;20510;-51
2021/03/11 04:27:29;;;;;;;44.97;22.17;;;4.60;99.90;;;;;;4996408;28;20768;-51
2021/03/11 04:29:57;;;;;;;49.20;21.27;;;4.60;99.90;;;;;;4995071;28;20450;-52
2021/03/11 04:32:25;;;;;;;44.93;24.20;;;4.60;99.90;;;;;;4996414;28;20806;-49
2021/03/11 04:34:54;;;;;;;38.97;20.93;;;4.50;99.90;;;;;;4997373;28;20762;-55
2021/03/11 04:37:21;;;;;;;41.33;21.10;;;4.50;99.90;;;;;;4997037;28;20482;-52
2021/03/11 04:39:48;;;;;;;33.47;20.10;;;4.50;99.90;;;;;;4996918;28;20454;-54
2021/03/11 04:42:16;;;;;;;46.30;23.50;;;4.50;99.90;;;;;;4996952;28;20801;-56
2021/03/11 04:44:43;;;;;;;43.10;21.60;;;4.50;99.90;;;;;;4997280;28;20791;-55
2021/03/11 04:47:12;;;;;;;35.63;21.33;;;4.40;99.90;;;;;;4997096;28;20447;-56
2021/03/11 04:49:40;;;;;;;40.17;21.90;;;4.40;99.90;;;;;;4997042;28;20779;-52
2021/03/11 04:52:11;;;;;;;39.83;22.53;;;4.40;99.90;;;;;;4996814;28;20452;-51
2021/03/11 04:54:40;;;;;;;44.17;22.13;;;4.40;99.90;;;;;;4997477;28;20438;-57
2021/03/11 04:57:08;;;;;;;37.13;20.97;;;4.40;99.90;;;;;;4996377;28;20486;-53
2021/03/11 04:59:38;;;;;;;47.70;22.30;;;4.50;99.90;;;;;;4996055;28;20566;-50
2021/03/11 05:02:11;;;;;;;44.23;23.37;;;4.50;99.90;;;;;;4996147;28;20679;-56
2021/03/11 05:04:43;;;;;;;41.00;22.33;;;4.50;99.90;;;;;;4995898;28;20906;-55
2021/03/11 05:07:15;;;;;;;42.30;20.53;;;4.50;99.90;;;;;;4996035;28;20477;-51
2021/03/11 05:09:43;;;;;;;42.50;19.93;;;4.50;99.90;;;;;;4996187;28;20443;-50
2021/03/11 05:12:12;;;;;;;39.33;19.50;;;4.50;99.90;;;;;;4995814;28;20671;-54
2021/03/11 05:14:41;;;;;;;41.60;20.63;;;4.60;99.90;;;;;;4994309;28;20508;-55
2021/03/11 05:17:10;;;;;;;36.23;19.40;;;4.60;99.90;;;;;;4995204;28;20514;-51
2021/03/11 05:19:41;;;;;;;35.87;20.30;;;4.70;99.90;;;;;;4994900;28;20489;-56
2021/03/11 05:22:09;;;;;;;48.70;20.87;;;4.60;99.90;;;;;;4994945;28;20458;-52
2021/03/11 05:24:39;;;;;;;42.70;22.80;;;4.70;99.90;;;;;;4995135;28;20538;-53
2021/03/11 05:27:08;;;;;;;42.43;20.90;;;4.70;99.90;;;;;;4995955;28;20554;-56
2021/03/11 05:29:37;;;;;;;38.43;18.97;;;4.70;99.90;;;;;;4995231;28;20723;-57
2021/03/11 05:32:06;;;;;;;39.77;20.07;;;4.60;99.90;;;;;;4994868;28;20872;-56
2021/03/11 05:34:34;;;;;;;38.57;19.40;;;4.70;99.90;;;;;;4994566;28;20510;-54
2021/03/11 05:37:03;;;;;;;47.77;23.50;;;4.70;99.90;;;;;;4995586;28;20510;-54
2021/03/11 05:39:33;;;;;;;40.40;21.67;;;4.70;99.90;;;;;;4995249;28;20471;-53
2021/03/11 05:42:04;;;;;;;40.53;20.13;;;4.70;99.90;;;;;;4995551;28;20423;-57
2021/03/11 05:44:33;;;;;;;45.00;22.20;;;4.60;99.90;;;;;;4995624;28;20451;-54
2021/03/11 05:47:06;;;;;;;42.07;21.93;;;4.60;99.90;;;;;;4995205;28;20522;-57
2021/03/11 05:49:35;;;;;;;48.17;22.80;;;4.70;99.90;;;;;;4995102;28;20507;-52
2021/03/11 05:52:04;;;;;;;41.03;19.73;;;4.70;99.90;;;;;;4994520;28;20783;-56
2021/03/11 05:54:34;;;;;;;40.13;20.97;;;4.80;99.90;;;;;;4994652;28;20455;-52
2021/03/11 05:57:05;;;;;;;41.83;20.47;;;4.80;99.90;;;;;;4994790;28;20779;-55
2021/03/11 05:59:33;;;;;;;43.53;20.57;;;4.80;99.90;;;;;;4994503;28;20471;-57
2021/03/11 06:02:06;;;;;;;41.83;21.40;;;4.80;99.90;;;;;;4994489;28;20454;-54
2021/03/11 06:04:35;;;;;;;44.30;20.60;;;4.80;99.90;;;;;;4994476;28;20534;-55
2021/03/11 06:07:07;;;;;;;41.67;22.97;;;4.80;99.90;;;;;;4994445;28;20851;-54
2021/03/11 06:09:36;;;;;;;34.47;18.93;;;4.80;99.90;;;;;;4994526;28;20440;-57
2021/03/11 06:12:07;;;;;;;40.43;19.10;;;4.80;99.90;;;;;;4994272;28;20856;-49
2021/03/11 06:14:39;;;;;;;35.40;19.10;;;4.90;99.90;;;;;;4993634;28;20546;-53
2021/03/11 06:17:09;;;;;;;35.90;20.77;;;4.90;99.90;;;;;;4994317;28;20983;-54
2021/03/11 06:19:38;;;;;;;47.50;23.07;;;4.90;99.90;;;;;;4993709;28;20474;-49
2021/03/11 06:22:06;;;;;;;42.17;22.50;;;4.80;99.90;;;;;;4994217;28;20458;-55
2021/03/11 06:24:34;;;;;;;52.20;21.77;;;4.80;99.90;;;;;;4994186;28;20526;-58
2021/03/11 06:27:02;;;;;;;45.77;22.77;;;4.80;99.90;;;;;;4994449;28;20470;-57
2021/03/11 06:29:38;;;;;;;47.33;20.90;;;4.80;99.90;;;;;;4994591;28;20535;-54
2021/03/11 06:32:06;;;;;;;43.57;21.50;;;4.80;99.90;;;;;;4975696;28;20772;-53
2021/03/11 06:34:39;;;;;;;49.83;22.53;;;4.80;99.90;;;;;;4978491;28;20737;-54
2021/03/11 06:37:08;;;;;;;48.60;23.47;;;4.80;99.90;;;;;;4984220;28;20780;-54
2021/03/11 06:39:37;;;;;;;50.00;24.17;;;4.90;99.90;;;;;;4974688;28;20452;-55
2021/03/11 06:42:05;;;;;;;40.27;20.67;;;4.90;99.90;;;;;;4977798;29;20504;-53
2021/03/11 06:44:38;;;;;;;51.00;23.20;;;4.90;99.90;;;;;;4975109;29;20436;-55
2021/03/11 06:47:07;;;;;;;40.97;21.00;;;4.90;99.90;;;;;;4975783;29;20829;-57
2021/03/11 06:49:34;;;;;;;43.33;22.20;;;4.80;99.90;;;;;;4975983;29;20835;-55
2021/03/11 06:52:12;;;;;;;39.57;20.43;;;4.80;99.90;;;;;;4975847;29;20462;-54
2021/03/11 06:55:09;;;;;;;49.43;24.50;;;4.80;99.90;;;;;;4983164;28;20450;-56
2021/03/11 06:57:37;;;;;;;38.30;21.83;;;4.80;99.90;;;;;;4963689;28;20453;-52
2021/03/11 07:03:37;;;;;;;42.00;18.70;;;4.80;99.90;;;;;;4997889;28;20410;-56
2021/03/11 07:06:04;;;;;;;46.70;20.00;;;4.80;99.90;;;;;;4999087;28;20451;-56
2021/03/11 07:08:31;;;;;;;47.20;20.57;;;4.80;99.90;;;;;;4998747;28;20463;-54
2021/03/11 07:11:04;;;;;;;49.37;22.53;;;4.80;99.90;;;;;;4998346;28;20759;-52
2021/03/11 07:13:39;;;;;;;49.70;23.37;;;4.80;99.90;;;;;;5000423;28;20486;-52
2021/03/11 07:16:13;;;;;;;58.47;23.60;;;4.90;99.90;;;;;;5009113;28;20458;-49
2021/03/11 07:18:46;;;;;;;39.50;20.20;;;4.80;99.90;;;;;;5001724;28;20472;-51
2021/03/11 07:21:35;;;;;;;44.47;23.67;;;4.80;99.90;;;;;;5010091;28;20881;-54
2021/03/11 07:24:02;;;;;;;45.30;22.27;;;4.80;99.90;;;;;;4976813;29;20439;-54
2021/03/11 07:26:30;;;;;;;47.63;24.10;;;4.70;99.90;;;;;;5003369;28;20445;-54
2021/03/11 07:29:16;;;;;;;42.00;23.40;;;4.80;99.90;;;;;;5009074;28;20446;-50
2021/03/11 07:31:44;;;;;;;55.50;27.27;;;4.80;99.90;;;;;;5009038;28;20507;-53
2021/03/11 07:34:13;;;;;;;48.13;23.43;;;4.80;99.90;;;;;;5004971;28;20459;-56
2021/03/11 07:36:40;;;;;;;44.13;23.70;;;4.80;99.90;;;;;;5005864;28;20993;-56
2021/03/11 07:39:10;;;;;;;43.43;20.70;;;4.90;99.90;;;;;;5007783;28;21821;-53
2021/03/11 07:41:38;;;;;;;42.10;21.33;;;5.00;99.90;;;;;;4994728;28;20419;-54
2021/03/11 07:44:07;;;;;;;43.37;20.73;;;5.00;99.90;;;;;;5004756;28;20748;-52
2021/03/11 07:46:37;;;;;;;43.73;20.73;;;5.10;99.90;;;;;;4994533;28;20459;-55
2021/03/11 07:49:05;;;;;;;42.87;20.10;;;5.00;99.90;;;;;;5001947;28;20481;-57
2021/03/11 07:51:33;;;;;;;35.50;18.70;;;5.10;99.90;;;;;;5003528;28;20427;-59
2021/03/11 07:54:02;;;;;;;40.37;19.00;;;5.20;99.90;;;;;;5013251;28;20481;-56
2021/03/11 07:56:30;;;;;;;38.30;19.27;;;5.20;99.90;;;;;;4980786;28;20502;-57
2021/03/11 07:59:04;;;;;;;43.07;19.43;;;5.20;99.90;;;;;;4977930;29;20482;-54
2021/03/11 08:01:36;;;;;;;42.03;19.47;;;5.30;99.90;;;;;;4977062;29;21003;-58
2021/03/11 08:04:05;;;;;;;34.63;19.10;;;5.30;99.90;;;;;;4975797;28;20585;-56
2021/03/11 08:06:34;;;;;;;38.90;20.33;;;5.30;99.90;;;;;;4974651;29;20535;-55
2021/03/11 08:09:01;;;;;;;39.10;21.07;;;5.30;99.90;;;;;;4981600;28;20455;-57
2021/03/11 08:11:35;;;;;;;41.60;21.40;;;5.40;99.90;;;;;;4997171;28;20473;-56
2021/03/11 08:14:22;;;;;;;41.47;19.80;;;5.30;99.90;;;;;;4995892;28;20522;-57
2021/03/11 08:16:50;;;;;;;32.43;19.60;;;5.40;99.90;;;;;;4996046;28;20927;-54
2021/03/11 08:19:50;;;;;;;43.83;19.47;;;5.50;99.90;;;;;;4995275;28;20505;-51
2021/03/11 08:22:51;;;;;;;39.03;19.63;;;5.50;99.90;;;;;;4995961;28;20427;-53
2021/03/11 08:28:41;;;;;;;39.47;18.23;;;5.50;99.90;;;;;;4983778;28;20426;-49
2021/03/11 08:31:10;;;;;;;41.23;23.00;;;5.50;99.90;;;;;;4994517;28;20446;-53
2021/03/11 08:33:57;;;;;;;31.80;18.60;;;5.80;99.90;;;;;;4998165;28;20998;-54
2021/03/11 08:36:33;;;;;;;28.97;15.43;;;6.30;99.90;;;;;;5010699;28;20710;-53
2021/03/11 08:39:02;;;;;;;29.80;15.73;;;6.50;99.90;;;;;;4999925;28;20510;-51
2021/03/11 08:41:34;;;;;;;31.53;15.90;;;6.60;99.90;;;;;;5000525;28;21082;-51
2021/03/11 08:44:05;;;;;;;34.57;15.30;;;6.70;99.90;;;;;;4997404;28;20519;-52
2021/03/11 08:46:54;;;;;;;29.73;14.73;;;6.70;99.90;;;;;;5005441;28;20851;-53
2021/03/11 08:49:43;;;;;;;23.10;14.30;;;6.90;99.90;;;;;;4997140;28;20788;-53
2021/03/11 08:52:45;;;;;;;36.73;16.47;;;7.10;99.90;;;;;;4990735;28;20856;-55
2021/03/11 08:55:35;;;;;;;24.77;13.60;;;7.20;99.90;;;;;;4983429;28;21181;-52
2021/03/11 08:58:04;;;;;;;26.40;13.80;;;7.20;99.90;;;;;;4994071;28;20456;-51
2021/03/11 09:01:10;;;;;;;27.13;14.50;;;7.20;99.90;;;;;;4989381;28;20885;-54
2021/03/11 09:03:49;;;;;;;27.70;14.27;;;7.40;99.90;;;;;;4997104;28;20797;-49
2021/03/11 09:06:20;;;;;;;24.20;14.30;;;7.40;99.90;;;;;;4992957;28;20439;-50
2021/03/11 09:08:48;;;;;;;25.90;14.50;;;7.40;99.90;;;;;;4990741;28;20761;-52
2021/03/11 09:11:20;;;;;;;23.63;13.77;;;7.30;99.90;;;;;;5011329;28;20518;-54
2021/03/11 09:13:49;;;;;;;24.13;14.57;;;7.20;99.90;;;;;;5011557;28;20486;-47
2021/03/11 09:16:16;;;;;;;26.37;15.93;;;7.30;99.90;;;;;;4994775;28;20453;-53
2021/03/11 09:18:43;;;;;;;25.33;14.57;;;7.40;99.90;;;;;;4995179;28;20450;-49
2021/03/11 09:21:12;;;;;;;22.40;13.30;;;7.40;99.90;;;;;;4982197;28;20450;-53
2021/03/11 09:23:41;;;;;;;25.43;13.90;;;7.30;99.90;;;;;;4963002;29;20498;-54
2021/03/11 09:26:23;;;;;;;21.47;12.30;;;7.10;99.90;;;;;;4975377;28;20450;-53
2021/03/11 09:28:50;;;;;;;27.30;14.27;;;7.20;99.90;;;;;;5004735;28;20864;-46
2021/03/11 09:31:47;;;;;;;26.13;14.87;;;7.20;99.90;;;;;;4985633;28;20752;-48
2021/03/11 09:34:14;;;;;;;30.50;16.27;;;7.10;99.90;;;;;;4963646;29;20495;-51
2021/03/11 09:36:48;;;;;;;25.40;15.90;;;7.10;99.90;;;;;;4960462;29;20448;-49
2021/03/11 09:39:15;;;;;;;20.10;12.83;;;7.20;99.90;;;;;;4989704;28;20774;-55
2021/03/11 09:41:44;;;;;;;27.87;14.07;;;7.20;99.90;;;;;;4989638;28;20447;-53
2021/03/11 09:44:11;;;;;;;25.90;13.93;;;7.20;99.90;;;;;;4989115;28;20767;-55
2021/03/11 09:46:38;;;;;;;37.30;15.70;;;7.30;99.90;;;;;;4999021;28;20813;-51
2021/03/11 09:49:05;;;;;;;26.57;12.97;;;7.40;99.90;;;;;;4982355;28;20431;-55
2021/03/11 09:51:34;;;;;;;22.20;13.10;;;7.50;99.90;;;;;;4988474;28;20769;-51
2021/03/11 09:54:07;;;;;;;22.53;13.47;;;7.50;99.90;;;;;;5000505;28;20470;-52
2021/03/11 09:56:39;;;;;;;20.97;14.00;;;7.50;99.90;;;;;;4984188;28;20802;-52
2021/03/11 09:59:11;;;;;;;23.07;12.70;;;7.60;99.90;;;;;;5001358;28;20473;-54
2021/03/11 10:01:38;;;;;;;24.00;13.47;;;7.50;99.90;;;;;;4990966;28;20860;-55
2021/03/11 10:04:13;;;;;;;26.03;12.87;;;7.60;99.90;;;;;;5000899;28;20450;-55
2021/03/11 10:06:49;;;;;;;23.03;13.20;;;7.70;99.90;;;;;;5004569;28;20827;-54
2021/03/11 10:09:18;;;;;;;19.33;11.93;;;7.80;99.90;;;;;;4985699;28;21316;-57
2021/03/11 10:11:53;;;;;;;17.87;11.10;;;7.70;99.90;;;;;;5000229;23;21185;-54
2021/03/11 10:14:23;;;;;;;19.80;10.83;;;7.70;99.90;;;;;;4995149;23;20818;-55
2021/03/11 10:16:52;;;;;;;24.30;13.57;;;7.70;99.90;;;;;;4976786;28;20778;-55
2021/03/11 10:19:27;;;;;;;18.10;10.93;;;7.80;99.90;;;;;;4996532;28;20800;-52
2021/03/11 10:21:55;;;;;;;20.57;11.47;;;7.90;99.90;;;;;;5000542;28;20464;-54
2021/03/11 10:24:38;;;;;;;20.20;12.37;;;8.00;99.90;;;;;;4989509;28;20772;-56
2021/03/11 10:27:16;;;;;;;22.87;12.77;;;7.90;99.90;;;;;;4980746;28;20447;-50
2021/03/11 10:29:43;;;;;;;18.80;10.13;;;7.90;99.90;;;;;;4991310;28;20476;-52
2021/03/11 10:32:11;;;;;;;20.53;12.13;;;7.90;99.90;;;;;;4998259;28;20439;-53
2021/03/11 10:34:46;;;;;;;21.70;12.77;;;7.90;99.90;;;;;;4992472;28;20461;-53
2021/03/11 10:37:13;;;;;;;22.73;13.37;;;8.10;99.90;;;;;;4997818;28;20765;-53
2021/03/11 10:39:53;;;;;;;19.27;10.97;;;7.90;99.90;;;;;;4984520;28;20489;-54
2021/03/11 10:42:20;;;;;;;19.70;10.97;;;7.60;99.90;;;;;;4992602;28;20529;-48
2021/03/11 10:48:03;;;;;;;21.10;12.90;;;7.30;99.90;;;;;;4990452;28;20462;-51
2021/03/11 10:50:38;;;;;;;25.50;13.10;;;7.30;99.90;;;;;;4996449;28;20529;-56
2021/03/11 10:53:07;;;;;;;18.73;11.73;;;7.20;99.90;;;;;;4999489;28;20473;-51
2021/03/11 10:55:39;;;;;;;19.03;11.80;;;7.20;99.90;;;;;;4997817;28;20451;-55
2021/03/11 10:58:19;;;;;;;24.53;14.17;;;7.20;99.90;;;;;;4992146;28;20459;-50
2021/03/11 11:00:48;;;;;;;20.73;12.90;;;7.30;99.90;;;;;;4984527;28;20896;-48
2021/03/11 11:03:20;;;;;;;19.80;12.77;;;7.50;99.90;;;;;;4999818;28;20849;-50
2021/03/11 11:05:49;;;;;;;20.83;12.93;;;7.70;99.90;;;;;;4996029;28;20849;-54
2021/03/11 11:08:17;;;;;;;18.53;11.00;;;8.10;99.90;;;;;;4994840;28;20802;-56
2021/03/11 11:10:47;;;;;;;16.80;11.77;;;8.60;99.90;;;;;;4994100;28;20922;-54
2021/03/11 11:13:16;;;;;;;19.17;11.40;;;9.00;99.90;;;;;;4988338;28;20833;-55
2021/03/11 11:15:48;;;;;;;20.30;10.60;;;9.20;99.90;;;;;;4978870;28;20792;-54
2021/03/11 11:18:17;;;;;;;19.47;12.40;;;9.20;99.90;;;;;;4980134;28;20784;-51
2021/03/11 11:20:46;;;;;;;12.93;8.63;;;9.30;99.90;;;;;;4990814;28;20804;-53
2021/03/11 11:23:14;;;;;;;18.80;11.00;;;9.20;99.90;;;;;;4986727;28;20751;-55
2021/03/11 11:25:42;;;;;;;15.00;10.57;;;9.10;99.90;;;;;;4981446;28;20880;-51
2021/03/11 11:28:11;;;;;;;21.07;12.90;;;9.10;99.90;;;;;;4986989;28;20474;-51
2021/03/11 11:30:39;;;;;;;14.77;9.77;;;9.20;99.90;;;;;;4977231;28;20451;-55
2021/03/11 11:33:07;;;;;;;19.77;11.70;;;9.20;99.90;;;;;;4988287;28;20443;-59
2021/03/11 11:35:35;;;;;;;16.53;9.90;;;9.30;99.90;;;;;;4986589;28;20535;-53
2021/03/11 11:38:04;;;;;;;20.93;9.40;;;9.50;99.90;;;;;;5000113;28;20478;-53
2021/03/11 11:40:34;;;;;;;15.40;8.70;;;9.50;99.90;;;;;;4981524;28;20978;-53
2021/03/11 11:43:03;;;;;;;15.83;10.10;;;9.50;99.90;;;;;;4990368;28;20490;-54
2021/03/11 11:45:33;;;;;;;16.03;9.40;;;9.50;99.90;;;;;;4977439;28;20935;-51
2021/03/11 11:48:02;;;;;;;14.70;9.23;;;9.50;99.90;;;;;;4977811;28;20788;-55
2021/03/11 11:50:31;;;;;;;12.10;9.47;;;9.40;99.90;;;;;;4980336;28;21036;-55
2021/03/11 11:52:59;;;;;;;11.57;9.50;;;9.50;99.90;;;;;;4972129;28;20776;-56
2021/03/11 11:55:27;;;;;;;13.30;8.90;;;9.70;99.90;;;;;;4976422;28;20816;-53
2021/03/11 11:57:54;;;;;;;12.83;9.00;;;9.90;99.90;;;;;;4997220;28;20438;-53
2021/03/11 12:00:22;;;;;;;13.40;8.43;;;10.00;99.90;;;;;;5005480;28;20486;-52
2021/03/11 12:02:52;;;;;;;13.13;8.80;;;10.10;99.90;;;;;;4981730;28;20546;-56
2021/03/11 12:05:20;;;;;;;12.07;8.10;;;10.20;99.90;;;;;;4981600;28;20763;-50
2021/03/11 12:07:49;;;;;;;13.63;7.63;;;10.20;99.90;;;;;;4981473;28;20985;-57
2021/03/11 12:10:17;;;;;;;13.90;8.17;;;10.30;99.90;;;;;;4974391;28;20857;-51
2021/03/11 12:12:46;;;;;;;11.07;8.13;;;10.50;99.90;;;;;;4991348;28;20454;-49
2021/03/11 12:15:13;;;;;;;12.13;8.20;;;10.50;99.90;;;;;;4976924;28;20806;-46
2021/03/11 12:17:40;;;;;;;13.20;8.10;;;10.60;99.90;;;;;;4989006;28;20803;-46
2021/03/11 12:20:10;;;;;;;9.83;7.47;;;10.60;99.90;;;;;;4981835;28;20856;-45
2021/03/11 12:22:37;;;;;;;10.40;7.00;;;10.70;99.90;;;;;;4984838;28;20738;-48
2021/03/11 12:25:04;;;;;;;10.60;7.30;;;10.80;99.90;;;;;;4974772;28;20888;-45
2021/03/11 12:27:31;;;;;;;11.53;7.73;;;10.90;99.90;;;;;;4982074;28;20446;-49
2021/03/11 12:30:00;;;;;;;10.30;7.03;;;11.00;99.90;;;;;;4994828;28;20438;-48
2021/03/11 12:32:27;;;;;;;12.50;7.30;;;11.20;99.90;;;;;;4961262;28;20447;-47
2021/03/11 12:34:54;;;;;;;10.40;7.70;;;11.30;99.90;;;;;;4973990;28;20537;-44
2021/03/11 12:37:23;;;;;;;10.47;7.67;;;11.30;99.90;;;;;;4960998;29;20443;-47
2021/03/11 12:39:50;;;;;;;8.13;6.00;;;11.30;99.90;;;;;;4981590;28;20486;-46
2021/03/11 12:42:17;;;;;;;7.13;5.97;;;11.40;99.90;;;;;;4980775;28;20482;-47
2021/03/11 12:44:44;;;;;;;12.27;6.53;;;11.80;99.90;;;;;;4984654;28;20453;-45
2021/03/11 12:47:11;;;;;;;8.17;6.23;;;12.30;99.90;;;;;;5003247;28;20449;-48
2021/03/11 12:49:39;;;;;;;10.00;6.63;;;12.20;99.90;;;;;;4988572;28;20778;-47
2021/03/11 12:52:06;;;;;;;7.10;5.57;;;12.20;99.90;;;;;;4982148;28;20513;-44
2021/03/11 12:54:36;;;;;;;8.73;6.20;;;12.10;99.90;;;;;;4982390;28;20447;-50
2021/03/11 12:57:03;;;;;;;11.10;7.27;;;12.10;99.90;;;;;;4980350;28;20883;-49
2021/03/11 12:59:30;;;;;;;10.00;6.50;;;11.80;99.90;;;;;;4996030;28;20469;-46
2021/03/11 13:01:57;;;;;;;7.57;5.40;;;11.60;99.90;;;;;;4996593;28;20442;-50
2021/03/11 13:07:15;;;;;;;9.30;6.53;;;11.40;99.90;;;;;;4983302;28;20508;-47
2021/03/11 13:09:47;;;;;;;9.70;6.43;;;11.20;99.90;;;;;;4987546;28;20454;-48
2021/03/11 13:12:15;;;;;;;8.80;5.53;;;11.20;99.90;;;;;;4990650;28;20851;-49
2021/03/11 13:14:44;;;;;;;9.60;6.83;;;11.10;99.90;;;;;;4987221;28;20938;-47
2021/03/11 13:17:12;;;;;;;10.10;5.77;;;11.00;99.90;;;;;;4985676;28;20543;-46
2021/03/11 13:19:41;;;;;;;7.27;5.73;;;11.00;99.90;;;;;;4983476;28;20471;-47
2021/03/11 13:22:09;;;;;;;9.30;6.20;;;11.00;99.90;;;;;;4990742;28;20858;-48